createdAt,value
2019-06-01T00:00:46.265Z,927.29
2019-06-01T00:01:46.668Z,927.37
2019-06-01T00:02:51.198Z,927.43
2019-06-01T00:03:44.973Z,927.44
2019-06-01T00:04:45.291Z,927.47
2019-06-01T00:05:44.882Z,927.47
2019-06-01T00:06:44.935Z,927.49
2019-06-01T00:07:44.967Z,927.56
2019-06-01T00:08:45.068Z,927.58
2019-06-01T00:09:45.180Z,927.64
2019-06-01T00:10:45.219Z,927.65
2019-06-01T00:11:45.550Z,927.67
2019-06-01T00:12:45.339Z,927.64
2019-06-01T00:13:45.601Z,927.67
2019-06-01T00:14:45.657Z,927.60
2019-06-01T00:15:44.432Z,927.60
2019-06-01T00:16:44.389Z,927.60
2019-06-01T00:17:44.354Z,927.63
2019-06-01T00:18:44.289Z,927.62
2019-06-01T00:19:44.237Z,927.62
2019-06-01T00:20:44.367Z,927.66
2019-06-01T00:21:45.306Z,927.78
2019-06-01T00:22:45.356Z,927.89
2019-06-01T00:23:44.391Z,927.95
2019-06-01T00:24:44.025Z,928.19
2019-06-01T00:25:44.618Z,928.33
2019-06-01T00:26:43.934Z,928.50
2019-06-01T00:27:44.718Z,928.49
2019-06-01T00:28:43.830Z,928.49
2019-06-01T00:29:44.725Z,928.52
2019-06-01T00:30:43.750Z,928.51
2019-06-01T00:31:45.170Z,928.53
2019-06-01T00:32:43.660Z,928.63
2019-06-01T00:33:43.618Z,928.81
2019-06-01T00:34:43.649Z,928.92
2019-06-01T00:35:43.580Z,929.00
2019-06-01T00:36:43.584Z,928.97
2019-06-01T00:37:43.498Z,928.89
2019-06-01T00:38:43.912Z,928.79
2019-06-01T00:39:43.693Z,928.85
2019-06-01T00:40:43.778Z,928.95
2019-06-01T00:41:43.930Z,929.15
2019-06-01T00:42:44.103Z,929.13
2019-06-01T00:43:44.195Z,929.21
2019-06-01T00:44:44.224Z,929.23
2019-06-01T00:45:44.381Z,929.32
2019-06-01T00:46:43.032Z,929.42
2019-06-01T00:47:42.983Z,929.34
2019-06-01T00:48:43.788Z,929.28
2019-06-01T00:49:42.877Z,929.26
2019-06-01T00:50:43.163Z,929.40
2019-06-01T00:51:42.915Z,929.43
2019-06-01T00:52:42.998Z,929.48
2019-06-01T00:53:43.312Z,929.46
2019-06-01T00:54:43.199Z,929.38
2019-06-01T00:55:43.248Z,929.39
2019-06-01T00:56:43.459Z,929.39
2019-06-01T00:57:43.460Z,929.44
2019-06-01T00:58:43.580Z,929.43
2019-06-01T00:59:43.598Z,929.42
2019-06-01T01:00:44.168Z,929.39
2019-06-01T01:01:42.336Z,929.40
2019-06-01T01:02:42.267Z,929.48
2019-06-01T01:03:42.236Z,929.47
2019-06-01T01:04:42.190Z,929.44
2019-06-01T01:05:42.162Z,929.46
2019-06-01T01:06:42.082Z,929.47
2019-06-01T01:07:42.050Z,929.42
2019-06-01T01:08:42.007Z,929.36
2019-06-01T01:09:41.952Z,929.34
2019-06-01T01:10:41.906Z,929.34
2019-06-01T01:11:41.852Z,929.33
2019-06-01T01:12:41.823Z,929.29
2019-06-01T01:13:41.767Z,929.26
2019-06-01T01:14:41.712Z,929.23
2019-06-01T01:15:41.673Z,929.23
2019-06-01T01:16:41.629Z,929.19
2019-06-01T01:17:41.574Z,929.15
2019-06-01T01:18:41.531Z,929.13
2019-06-01T01:19:41.489Z,929.15
2019-06-01T01:20:41.445Z,929.19
2019-06-01T01:21:41.414Z,929.24
2019-06-01T01:22:41.355Z,929.15
2019-06-01T01:23:41.296Z,929.16
2019-06-01T01:24:41.263Z,929.18
2019-06-01T01:25:41.217Z,929.26
2019-06-01T01:26:41.168Z,929.27
2019-06-01T01:27:41.110Z,929.23
2019-06-01T01:28:41.079Z,929.18
2019-06-01T01:29:41.043Z,929.15
2019-06-01T01:30:40.973Z,929.06
2019-06-01T01:31:40.938Z,928.89
2019-06-01T01:32:40.906Z,928.84
2019-06-01T01:33:40.857Z,928.81
2019-06-01T01:34:40.785Z,928.82
2019-06-01T01:35:40.753Z,928.86
2019-06-01T01:36:40.711Z,928.94
2019-06-01T01:37:40.672Z,928.90
2019-06-01T01:38:40.619Z,928.94
2019-06-01T01:39:40.561Z,928.92
2019-06-01T01:40:40.532Z,928.92
2019-06-01T01:41:40.468Z,928.90
2019-06-01T01:42:40.425Z,928.89
2019-06-01T01:43:40.380Z,928.83
2019-06-01T01:44:40.322Z,928.87
2019-06-01T01:45:40.293Z,928.80
2019-06-01T01:46:40.239Z,928.76
2019-06-01T01:47:40.201Z,928.72
2019-06-01T01:48:40.151Z,928.62
2019-06-01T01:49:40.097Z,928.59
2019-06-01T01:50:40.051Z,928.58
2019-06-01T01:51:40.024Z,928.56
2019-06-01T01:52:39.975Z,928.52
2019-06-01T01:53:39.938Z,928.49
2019-06-01T01:54:39.865Z,928.46
2019-06-01T01:55:39.823Z,928.54
2019-06-01T01:56:39.777Z,928.54
2019-06-01T01:57:39.731Z,928.56
2019-06-01T01:58:39.692Z,928.54
2019-06-01T01:59:39.637Z,928.48
2019-06-01T02:00:39.595Z,928.48
2019-06-01T02:01:39.531Z,928.45
2019-06-01T02:02:39.497Z,928.51
2019-06-01T02:03:39.454Z,928.38
2019-06-01T02:04:39.410Z,928.39
2019-06-01T02:05:39.358Z,928.33
2019-06-01T02:06:39.330Z,928.33
2019-06-01T02:07:39.274Z,928.28
2019-06-01T02:08:39.228Z,928.32
2019-06-01T02:09:39.177Z,928.31
2019-06-01T02:10:39.128Z,928.27
2019-06-01T02:11:39.089Z,928.27
2019-06-01T02:12:39.036Z,928.22
2019-06-01T02:13:38.991Z,928.16
2019-06-01T02:14:38.942Z,928.21
2019-06-01T02:15:38.894Z,928.22
2019-06-01T02:16:38.846Z,928.25
2019-06-01T02:17:38.807Z,928.23
2019-06-01T02:18:38.746Z,928.27
2019-06-01T02:19:38.711Z,928.25
2019-06-01T02:20:38.664Z,928.21
2019-06-01T02:21:38.616Z,928.16
2019-06-01T02:22:38.580Z,928.10
2019-06-01T02:23:38.511Z,928.08
2019-06-01T02:24:38.463Z,928.07
2019-06-01T02:25:38.445Z,928.07
2019-06-01T02:26:38.387Z,928.08
2019-06-01T02:27:38.336Z,928.09
2019-06-01T02:28:38.290Z,928.09
2019-06-01T02:29:38.231Z,928.09
2019-06-01T02:30:38.210Z,928.09
2019-06-01T02:31:42.457Z,928.12
2019-06-01T02:32:38.117Z,928.14
2019-06-01T02:33:38.046Z,928.17
2019-06-01T02:34:38.021Z,928.21
2019-06-01T02:35:37.972Z,928.28
2019-06-01T02:36:37.936Z,928.27
2019-06-01T02:37:37.860Z,928.29
2019-06-01T02:38:37.813Z,928.29
2019-06-01T02:39:37.781Z,928.32
2019-06-01T02:40:37.729Z,928.35
2019-06-01T02:41:37.691Z,928.34
2019-06-01T02:42:37.636Z,928.37
2019-06-01T02:43:37.598Z,928.39
2019-06-01T02:44:37.547Z,928.40
2019-06-01T02:45:37.516Z,928.46
2019-06-01T02:46:37.465Z,928.52
2019-06-01T02:47:37.419Z,928.51
2019-06-01T02:48:37.475Z,928.48
2019-06-01T02:49:37.328Z,928.48
2019-06-01T02:50:37.260Z,928.47
2019-06-01T02:51:37.222Z,928.50
2019-06-01T02:52:37.173Z,928.53
2019-06-01T02:53:37.139Z,928.52
2019-06-01T02:54:37.085Z,928.52
2019-06-01T02:55:37.040Z,928.52
2019-06-01T02:56:36.978Z,928.50
2019-06-01T02:57:36.946Z,928.45
2019-06-01T02:58:36.899Z,928.47
2019-06-01T02:59:36.865Z,928.47
2019-06-01T03:00:36.807Z,928.50
2019-06-01T03:01:36.772Z,928.48
2019-06-01T03:02:36.708Z,928.46
2019-06-01T03:03:36.675Z,928.47
2019-06-01T03:04:36.622Z,928.55
2019-06-01T03:05:36.575Z,928.53
2019-06-01T03:06:36.541Z,928.50
2019-06-01T03:07:36.479Z,928.46
2019-06-01T03:08:36.433Z,928.44
2019-06-01T03:09:36.375Z,928.43
2019-06-01T03:10:36.337Z,928.44
2019-06-01T03:11:36.308Z,928.43
2019-06-01T03:12:36.235Z,928.44
2019-06-01T03:13:36.190Z,928.44
2019-06-01T03:14:36.143Z,928.42
2019-06-01T03:15:36.111Z,928.33
2019-06-01T03:16:39.864Z,928.27
2019-06-01T03:17:36.025Z,928.23
2019-06-01T03:18:35.994Z,928.22
2019-06-01T03:19:35.923Z,928.27
2019-06-01T03:20:35.883Z,928.29
2019-06-01T03:21:35.846Z,928.31
2019-06-01T03:22:35.779Z,928.41
2019-06-01T03:23:35.749Z,928.44
2019-06-01T03:24:35.702Z,928.49
2019-06-01T03:25:35.658Z,928.46
2019-06-01T03:26:35.586Z,928.41
2019-06-01T03:27:35.539Z,928.39
2019-06-01T03:28:35.506Z,928.40
2019-06-01T03:29:35.446Z,928.38
2019-06-01T03:30:35.426Z,928.40
2019-06-01T03:31:35.368Z,928.42
2019-06-01T03:32:37.275Z,928.40
2019-06-01T03:33:35.289Z,928.42
2019-06-01T03:34:35.217Z,928.37
2019-06-01T03:35:35.167Z,928.41
2019-06-01T03:36:35.142Z,928.37
2019-06-01T03:37:35.097Z,928.34
2019-06-01T03:38:35.042Z,928.26
2019-06-01T03:39:35.005Z,928.20
2019-06-01T03:40:34.958Z,928.16
2019-06-01T03:41:34.897Z,928.14
2019-06-01T03:42:34.843Z,928.22
2019-06-01T03:43:34.810Z,928.28
2019-06-01T03:44:34.793Z,928.27
2019-06-01T03:45:34.718Z,928.28
2019-06-01T03:46:34.659Z,928.28
2019-06-01T03:47:34.623Z,928.32
2019-06-01T03:48:34.585Z,928.33
2019-06-01T03:49:34.541Z,928.30
2019-06-01T03:50:34.471Z,928.25
2019-06-01T03:51:34.511Z,928.23
2019-06-01T03:52:34.387Z,928.24
2019-06-01T03:53:34.346Z,928.22
2019-06-01T03:54:34.297Z,928.26
2019-06-01T03:55:34.247Z,928.25
2019-06-01T03:56:34.207Z,928.19
2019-06-01T03:57:34.159Z,928.18
2019-06-01T03:58:34.114Z,928.17
2019-06-01T03:59:34.071Z,928.16
2019-06-01T04:00:34.029Z,928.10
2019-06-01T04:01:33.974Z,928.08
2019-06-01T04:02:33.939Z,928.00
2019-06-01T04:03:33.879Z,927.96
2019-06-01T04:04:33.829Z,927.90
2019-06-01T04:05:33.782Z,927.89
2019-06-01T04:06:33.749Z,927.92
2019-06-01T04:07:33.694Z,927.91
2019-06-01T04:08:33.661Z,927.90
2019-06-01T04:09:33.610Z,927.99
2019-06-01T04:10:33.554Z,928.00
2019-06-01T04:11:33.496Z,928.03
2019-06-01T04:12:33.463Z,928.00
2019-06-01T04:13:33.453Z,928.02
2019-06-01T04:14:33.395Z,927.98
2019-06-01T04:15:33.320Z,927.97
2019-06-01T04:16:33.278Z,927.93
2019-06-01T04:17:33.231Z,927.96
2019-06-01T04:18:33.170Z,927.99
2019-06-01T04:19:33.135Z,927.99
2019-06-01T04:20:33.099Z,927.98
2019-06-01T04:21:33.055Z,928.01
2019-06-01T04:22:33.003Z,928.04
2019-06-01T04:23:32.938Z,928.07
2019-06-01T04:24:32.914Z,928.03
2019-06-01T04:25:32.857Z,928.03
2019-06-01T04:26:32.814Z,928.04
2019-06-01T04:27:32.766Z,927.97
2019-06-01T04:28:32.731Z,927.91
2019-06-01T04:29:32.659Z,927.90
2019-06-01T04:30:32.625Z,927.91
2019-06-01T04:31:32.582Z,927.90
2019-06-01T04:32:48.537Z,927.82
2019-06-01T04:33:32.482Z,927.71
2019-06-01T04:34:35.646Z,927.64
2019-06-01T04:35:32.402Z,927.71
2019-06-01T04:36:32.352Z,927.63
2019-06-01T04:37:32.289Z,927.55
2019-06-01T04:38:32.253Z,927.48
2019-06-01T04:39:32.221Z,927.54
2019-06-01T04:40:32.164Z,927.49
2019-06-01T04:41:32.102Z,927.50
2019-06-01T04:42:32.070Z,927.51
2019-06-01T04:43:32.019Z,927.57
2019-06-01T04:44:31.989Z,927.59
2019-06-01T04:45:31.932Z,927.62
2019-06-01T04:46:31.895Z,927.63
2019-06-01T04:47:31.846Z,927.56
2019-06-01T04:48:31.799Z,927.57
2019-06-01T04:49:31.745Z,927.54
2019-06-01T04:50:31.707Z,927.56
2019-06-01T04:51:31.659Z,927.58
2019-06-01T04:52:31.605Z,927.61
2019-06-01T04:53:31.546Z,927.68
2019-06-01T04:54:31.520Z,927.71
2019-06-01T04:55:31.482Z,927.68
2019-06-01T04:56:31.431Z,927.69
2019-06-01T04:57:31.384Z,927.67
2019-06-01T04:58:31.312Z,927.61
2019-06-01T04:59:31.274Z,927.65
2019-06-01T05:00:31.246Z,927.68
2019-06-01T05:01:31.184Z,927.69
2019-06-01T05:02:31.127Z,927.70
2019-06-01T05:03:31.089Z,927.71
2019-06-01T05:04:31.055Z,927.74
2019-06-01T05:05:31.013Z,927.74
2019-06-01T05:06:30.954Z,927.70
2019-06-01T05:07:30.917Z,927.70
2019-06-01T05:08:30.847Z,927.72
2019-06-01T05:09:30.801Z,927.68
2019-06-01T05:10:30.777Z,927.71
2019-06-01T05:11:30.717Z,927.65
2019-06-01T05:12:30.670Z,927.67
2019-06-01T05:13:30.630Z,927.64
2019-06-01T05:14:30.572Z,927.63
2019-06-01T05:15:30.524Z,927.64
2019-06-01T05:16:30.488Z,927.67
2019-06-01T05:17:30.456Z,927.59
2019-06-01T05:18:30.407Z,927.62
2019-06-01T05:19:30.360Z,927.56
2019-06-01T05:20:30.290Z,927.50
2019-06-01T05:21:30.256Z,927.50
2019-06-01T05:22:30.198Z,927.53
2019-06-01T05:23:30.165Z,927.56
2019-06-01T05:24:30.119Z,927.58
2019-06-01T05:25:30.058Z,927.56
2019-06-01T05:26:30.020Z,927.59
2019-06-01T05:27:29.966Z,927.58
2019-06-01T05:28:29.937Z,927.64
2019-06-01T05:29:29.901Z,927.64
2019-06-01T05:30:29.826Z,927.64
2019-06-01T05:31:29.801Z,927.62
2019-06-01T05:32:29.745Z,927.60
2019-06-01T05:33:37.376Z,927.57
2019-06-01T05:34:29.640Z,927.54
2019-06-01T05:35:29.618Z,927.46
2019-06-01T05:36:29.570Z,927.41
2019-06-01T05:37:29.523Z,927.33
2019-06-01T05:38:29.486Z,927.34
2019-06-01T05:39:29.420Z,927.30
2019-06-01T05:40:29.388Z,927.25
2019-06-01T05:41:29.316Z,927.20
2019-06-01T05:42:29.270Z,927.20
2019-06-01T05:43:29.248Z,927.16
2019-06-01T05:44:29.177Z,927.15
2019-06-01T05:45:29.156Z,927.13
2019-06-01T05:46:29.097Z,927.07
2019-06-01T05:47:29.051Z,927.07
2019-06-01T05:48:30.797Z,927.07
2019-06-01T05:49:28.952Z,927.08
2019-06-01T05:50:28.923Z,927.10
2019-06-01T05:51:28.873Z,927.19
2019-06-01T05:52:28.805Z,927.28
2019-06-01T05:53:28.758Z,927.37
2019-06-01T05:54:28.733Z,927.39
2019-06-01T05:55:28.683Z,927.42
2019-06-01T05:56:28.630Z,927.46
2019-06-01T05:57:28.588Z,927.48
2019-06-01T05:58:29.413Z,927.50
2019-06-01T05:59:28.493Z,927.52
2019-06-01T06:00:28.454Z,927.60
2019-06-01T06:01:28.400Z,927.65
2019-06-01T06:02:28.340Z,927.70
2019-06-01T06:03:39.927Z,927.75
2019-06-01T06:04:28.261Z,927.75
2019-06-01T06:05:28.209Z,927.75
2019-06-01T06:06:28.162Z,927.70
2019-06-01T06:07:28.130Z,927.70
2019-06-01T06:08:28.075Z,927.68
2019-06-01T06:09:28.022Z,927.63
2019-06-01T06:10:27.979Z,927.66
2019-06-01T06:11:27.940Z,927.63
2019-06-01T06:12:27.896Z,927.66
2019-06-01T06:13:27.830Z,927.73
2019-06-01T06:14:27.804Z,927.72
2019-06-01T06:15:27.735Z,927.70
2019-06-01T06:16:27.701Z,927.66
2019-06-01T06:17:27.656Z,927.58
2019-06-01T06:18:27.622Z,927.48
2019-06-01T06:19:27.564Z,927.39
2019-06-01T06:20:27.514Z,927.40
2019-06-01T06:21:27.483Z,927.48
2019-06-01T06:22:27.435Z,927.55
2019-06-01T06:23:27.377Z,927.53
2019-06-01T06:24:27.337Z,927.51
2019-06-01T06:25:28.652Z,927.51
2019-06-01T06:26:27.246Z,927.46
2019-06-01T06:27:27.178Z,927.41
2019-06-01T06:28:27.132Z,927.46
2019-06-01T06:29:27.090Z,927.51
2019-06-01T06:30:27.050Z,927.51
2019-06-01T06:31:26.994Z,927.53
2019-06-01T06:32:26.944Z,927.49
2019-06-01T06:33:26.924Z,927.44
2019-06-01T06:34:26.865Z,927.42
2019-06-01T06:35:26.823Z,927.48
2019-06-01T06:36:26.780Z,927.50
2019-06-01T06:37:26.733Z,927.36
2019-06-01T06:38:26.665Z,927.50
2019-06-01T06:39:26.618Z,927.76
2019-06-01T06:40:26.578Z,927.91
2019-06-01T06:41:26.531Z,928.00
2019-06-01T06:42:26.506Z,928.02
2019-06-01T06:43:32.912Z,927.98
2019-06-01T06:44:26.405Z,927.95
2019-06-01T06:45:26.365Z,927.93
2019-06-01T06:46:26.298Z,927.95
2019-06-01T06:47:26.261Z,927.94
2019-06-01T06:48:26.213Z,927.95
2019-06-01T06:49:26.216Z,927.96
2019-06-01T06:50:26.131Z,927.94
2019-06-01T06:51:26.075Z,927.82
2019-06-01T06:52:26.031Z,927.72
2019-06-01T06:53:34.798Z,927.62
2019-06-01T06:54:26.132Z,927.64
2019-06-01T06:55:26.166Z,927.66
2019-06-01T06:56:26.162Z,927.66
2019-06-01T06:57:26.291Z,927.70
2019-06-01T06:58:26.501Z,927.73
2019-06-01T06:59:26.770Z,927.81
2019-06-01T07:00:26.887Z,927.81
2019-06-01T07:01:26.866Z,927.81
2019-06-01T07:02:25.560Z,927.73
2019-06-01T07:03:25.513Z,927.66
2019-06-01T07:04:25.467Z,927.64
2019-06-01T07:05:25.547Z,927.54
2019-06-01T07:06:25.680Z,927.50
2019-06-01T07:07:25.783Z,927.54
2019-06-01T07:08:25.994Z,927.59
2019-06-01T07:09:26.158Z,927.60
2019-06-01T07:10:26.267Z,927.57
2019-06-01T07:11:25.430Z,927.63
2019-06-01T07:12:25.406Z,927.66
2019-06-01T07:13:25.438Z,927.70
2019-06-01T07:14:25.480Z,927.71
2019-06-01T07:15:25.551Z,927.71
2019-06-01T07:16:25.539Z,927.68
2019-06-01T07:17:25.615Z,927.71
2019-06-01T07:18:25.768Z,927.69
2019-06-01T07:19:25.693Z,927.68
2019-06-01T07:20:25.708Z,927.60
2019-06-01T07:21:25.718Z,927.53
2019-06-01T07:22:25.803Z,927.48
2019-06-01T07:23:25.815Z,927.53
2019-06-01T07:24:25.926Z,927.56
2019-06-01T07:25:24.795Z,927.61
2019-06-01T07:26:24.455Z,927.63
2019-06-01T07:27:24.412Z,927.65
2019-06-01T07:28:24.383Z,927.58
2019-06-01T07:29:24.305Z,927.63
2019-06-01T07:30:28.425Z,927.67
2019-06-01T07:31:24.301Z,927.70
2019-06-01T07:32:24.679Z,927.64
2019-06-01T07:33:24.315Z,927.60
2019-06-01T07:34:33.321Z,927.61
2019-06-01T07:35:24.408Z,927.59
2019-06-01T07:36:24.451Z,927.65
2019-06-01T07:37:24.443Z,927.66
2019-06-01T07:38:24.609Z,927.68
2019-06-01T07:39:24.871Z,927.67
2019-06-01T07:40:24.783Z,927.75
2019-06-01T07:41:24.671Z,927.76
2019-06-01T07:42:26.150Z,927.75
2019-06-01T07:43:24.729Z,927.74
2019-06-01T07:44:24.884Z,927.75
2019-06-01T07:45:24.774Z,927.76
2019-06-01T07:46:24.812Z,927.78
2019-06-01T07:47:23.464Z,927.81
2019-06-01T07:48:23.411Z,927.82
2019-06-01T07:49:23.355Z,927.85
2019-06-01T07:50:23.918Z,927.88
2019-06-01T07:51:23.299Z,927.88
2019-06-01T07:52:24.218Z,927.88
2019-06-01T07:53:24.030Z,927.95
2019-06-01T07:54:24.733Z,927.94
2019-06-01T07:55:23.525Z,927.92
2019-06-01T07:56:24.294Z,927.94
2019-06-01T07:57:23.563Z,927.97
2019-06-01T07:58:22.946Z,927.96
2019-06-01T07:59:24.378Z,927.94
2019-06-01T08:00:24.031Z,927.93
2019-06-01T08:01:24.983Z,927.99
2019-06-01T08:02:25.703Z,927.98
2019-06-01T08:03:25.715Z,928.01
2019-06-01T08:04:24.284Z,928.07
2019-06-01T08:05:23.763Z,928.09
2019-06-01T08:06:23.925Z,928.12
2019-06-01T08:07:23.297Z,928.10
2019-06-01T08:08:23.372Z,928.11
2019-06-01T08:09:24.512Z,928.12
2019-06-01T08:10:23.116Z,928.08
2019-06-01T08:11:25.443Z,928.09
2019-06-01T08:12:23.285Z,928.11
2019-06-01T08:13:23.324Z,928.07
2019-06-01T08:14:22.591Z,928.06
2019-06-01T08:15:23.423Z,928.07
2019-06-01T08:16:22.111Z,928.12
2019-06-01T08:17:22.157Z,928.11
2019-06-01T08:18:22.047Z,928.08
2019-06-01T08:19:22.125Z,928.11
2019-06-01T08:20:21.999Z,928.09
2019-06-01T08:21:21.893Z,928.10
2019-06-01T08:22:22.185Z,928.13
2019-06-01T08:23:21.932Z,928.13
2019-06-01T08:24:22.165Z,928.14
2019-06-01T08:25:22.150Z,928.20
2019-06-01T08:26:22.206Z,928.24
2019-06-01T08:27:22.386Z,928.24
2019-06-01T08:28:22.388Z,928.19
2019-06-01T08:29:22.616Z,928.22
2019-06-01T08:30:22.563Z,928.18
2019-06-01T08:31:22.524Z,928.20
2019-06-01T08:32:22.600Z,928.24
2019-06-01T08:33:24.747Z,928.26
2019-06-01T08:34:21.268Z,928.31
2019-06-01T08:35:21.209Z,928.35
2019-06-01T08:36:21.177Z,928.33
2019-06-01T08:37:21.126Z,928.41
2019-06-01T08:38:21.070Z,928.37
2019-06-01T08:39:21.034Z,928.36
2019-06-01T08:40:20.984Z,928.40
2019-06-01T08:41:20.944Z,928.43
2019-06-01T08:42:20.894Z,928.40
2019-06-01T08:43:20.847Z,928.40
2019-06-01T08:44:20.803Z,928.36
2019-06-01T08:45:20.758Z,928.38
2019-06-01T08:46:20.720Z,928.40
2019-06-01T08:47:20.677Z,928.40
2019-06-01T08:48:20.604Z,928.38
2019-06-01T08:49:20.566Z,928.35
2019-06-01T08:50:20.525Z,928.36
2019-06-01T08:51:20.478Z,928.36
2019-06-01T08:52:20.423Z,928.40
2019-06-01T08:53:20.380Z,928.37
2019-06-01T08:54:20.334Z,928.37
2019-06-01T08:55:20.274Z,928.38
2019-06-01T08:56:22.056Z,928.39
2019-06-01T08:57:20.194Z,928.40
2019-06-01T08:58:20.144Z,928.41
2019-06-01T08:59:20.109Z,928.39
2019-06-01T09:00:20.055Z,928.38
2019-06-01T09:01:20.033Z,928.34
2019-06-01T09:02:19.963Z,928.38
2019-06-01T09:03:19.909Z,928.47
2019-06-01T09:04:19.867Z,928.52
2019-06-01T09:05:24.189Z,928.53
2019-06-01T09:06:19.774Z,928.58
2019-06-01T09:07:19.728Z,928.61
2019-06-01T09:08:22.957Z,928.60
2019-06-01T09:09:19.630Z,928.62
2019-06-01T09:10:19.598Z,928.61
2019-06-01T09:11:19.552Z,928.61
2019-06-01T09:12:19.480Z,928.64
2019-06-01T09:13:19.440Z,928.58
2019-06-01T09:14:19.413Z,928.54
2019-06-01T09:15:19.365Z,928.56
2019-06-01T09:16:19.321Z,928.53
2019-06-01T09:17:19.258Z,928.52
2019-06-01T09:18:19.207Z,928.44
2019-06-01T09:19:19.162Z,928.47
2019-06-01T09:20:19.127Z,928.49
2019-06-01T09:21:19.084Z,928.59
2019-06-01T09:22:19.074Z,928.57
2019-06-01T09:23:18.978Z,928.61
2019-06-01T09:24:18.942Z,928.63
2019-06-01T09:25:18.886Z,928.62
2019-06-01T09:26:18.839Z,928.61
2019-06-01T09:27:18.793Z,928.58
2019-06-01T09:28:18.754Z,928.61
2019-06-01T09:29:18.685Z,928.59
2019-06-01T09:30:18.651Z,928.62
2019-06-01T09:31:18.605Z,928.64
2019-06-01T09:32:18.553Z,928.68
2019-06-01T09:33:18.498Z,928.70
2019-06-01T09:34:18.471Z,928.70
2019-06-01T09:35:18.436Z,928.71
2019-06-01T09:36:18.370Z,928.77
2019-06-01T09:37:18.333Z,928.81
2019-06-01T09:38:18.310Z,928.85
2019-06-01T09:39:18.231Z,928.84
2019-06-01T09:40:18.203Z,928.81
2019-06-01T09:41:18.171Z,928.90
2019-06-01T09:42:18.088Z,928.90
2019-06-01T09:43:18.047Z,928.93
2019-06-01T09:44:17.990Z,928.99
2019-06-01T09:45:17.950Z,929.01
2019-06-01T09:46:17.902Z,928.99
2019-06-01T09:47:17.844Z,928.98
2019-06-01T09:48:17.811Z,928.96
2019-06-01T09:49:17.781Z,929.01
2019-06-01T09:50:17.705Z,928.98
2019-06-01T09:51:17.683Z,929.01
2019-06-01T09:52:17.623Z,928.98
2019-06-01T09:53:17.579Z,928.98
2019-06-01T09:54:17.539Z,928.96
2019-06-01T09:55:17.486Z,928.97
2019-06-01T09:56:17.450Z,928.98
2019-06-01T09:57:17.405Z,929.01
2019-06-01T09:58:17.345Z,929.00
2019-06-01T09:59:17.294Z,929.06
2019-06-01T10:00:17.263Z,929.04
2019-06-01T10:01:17.191Z,929.03
2019-06-01T10:02:17.157Z,929.05
2019-06-01T10:03:17.111Z,929.08
2019-06-01T10:04:17.074Z,929.09
2019-06-01T10:05:17.016Z,929.15
2019-06-01T10:06:16.984Z,929.15
2019-06-01T10:07:16.925Z,929.20
2019-06-01T10:08:16.877Z,929.24
2019-06-01T10:09:16.817Z,929.30
2019-06-01T10:10:16.779Z,929.39
2019-06-01T10:11:16.743Z,929.45
2019-06-01T10:12:16.696Z,929.51
2019-06-01T10:13:16.641Z,929.62
2019-06-01T10:14:16.584Z,929.62
2019-06-01T10:15:16.565Z,929.62
2019-06-01T10:16:16.513Z,929.51
2019-06-01T10:17:16.456Z,929.32
2019-06-01T10:18:16.398Z,929.24
2019-06-01T10:19:16.373Z,929.28
2019-06-01T10:20:16.334Z,929.35
2019-06-01T10:21:16.258Z,929.35
2019-06-01T10:22:16.221Z,929.31
2019-06-01T10:23:16.174Z,929.30
2019-06-01T10:24:16.140Z,929.30
2019-06-01T10:25:16.097Z,929.30
2019-06-01T10:26:16.051Z,929.31
2019-06-01T10:27:15.993Z,929.37
2019-06-01T10:28:15.957Z,929.40
2019-06-01T10:29:15.910Z,929.42
2019-06-01T10:30:15.897Z,929.43
2019-06-01T10:31:15.802Z,929.38
2019-06-01T10:32:15.752Z,929.40
2019-06-01T10:33:15.697Z,929.41
2019-06-01T10:34:15.666Z,929.50
2019-06-01T10:35:15.625Z,929.55
2019-06-01T10:36:20.634Z,929.51
2019-06-01T10:37:15.532Z,929.48
2019-06-01T10:38:15.464Z,929.40
2019-06-01T10:39:19.419Z,929.32
2019-06-01T10:40:15.449Z,929.33
2019-06-01T10:41:15.348Z,929.29
2019-06-01T10:42:15.299Z,929.26
2019-06-01T10:43:15.245Z,929.28
2019-06-01T10:44:15.197Z,929.32
2019-06-01T10:45:15.153Z,929.33
2019-06-01T10:46:15.101Z,929.30
2019-06-01T10:47:15.056Z,929.31
2019-06-01T10:48:15.010Z,929.33
2019-06-01T10:49:14.968Z,929.33
2019-06-01T10:50:17.350Z,929.38
2019-06-01T10:51:14.889Z,929.36
2019-06-01T10:52:14.832Z,929.33
2019-06-01T10:53:14.784Z,929.34
2019-06-01T10:54:14.727Z,929.33
2019-06-01T10:55:14.678Z,929.33
2019-06-01T10:56:14.642Z,929.26
2019-06-01T10:57:14.591Z,929.26
2019-06-01T10:58:14.536Z,929.29
2019-06-01T10:59:14.525Z,929.38
2019-06-01T11:00:14.656Z,929.38
2019-06-01T11:01:14.401Z,929.41
2019-06-01T11:02:14.357Z,929.42
2019-06-01T11:03:14.296Z,929.37
2019-06-01T11:04:14.249Z,929.38
2019-06-01T11:05:14.214Z,929.37
2019-06-01T11:06:14.174Z,929.49
2019-06-01T11:07:14.109Z,929.43
2019-06-01T11:08:14.085Z,929.44
2019-06-01T11:09:14.044Z,929.45
2019-06-01T11:10:13.994Z,929.46
2019-06-01T11:11:14.013Z,929.49
2019-06-01T11:12:13.879Z,929.51
2019-06-01T11:13:13.834Z,929.51
2019-06-01T11:14:13.803Z,929.52
2019-06-01T11:15:13.757Z,929.45
2019-06-01T11:16:13.724Z,929.45
2019-06-01T11:17:13.674Z,929.44
2019-06-01T11:18:13.617Z,929.40
2019-06-01T11:19:13.581Z,929.45
2019-06-01T11:20:13.537Z,929.44
2019-06-01T11:21:13.484Z,929.44
2019-06-01T11:22:13.454Z,929.47
2019-06-01T11:23:13.396Z,929.48
2019-06-01T11:24:13.370Z,929.52
2019-06-01T11:25:13.308Z,929.54
2019-06-01T11:26:13.272Z,929.60
2019-06-01T11:27:13.236Z,929.61
2019-06-01T11:28:13.194Z,929.64
2019-06-01T11:29:13.142Z,929.67
2019-06-01T11:30:13.085Z,929.67
2019-06-01T11:31:13.055Z,929.70
2019-06-01T11:32:13.012Z,929.68
2019-06-01T11:33:12.983Z,929.75
2019-06-01T11:34:12.919Z,929.78
2019-06-01T11:35:12.889Z,929.84
2019-06-01T11:36:12.824Z,929.82
2019-06-01T11:37:15.537Z,929.83
2019-06-01T11:38:12.748Z,929.83
2019-06-01T11:39:12.713Z,929.79
2019-06-01T11:40:12.663Z,929.80
2019-06-01T11:41:12.624Z,929.85
2019-06-01T11:42:12.586Z,929.82
2019-06-01T11:43:12.516Z,929.87
2019-06-01T11:44:12.497Z,929.88
2019-06-01T11:45:12.428Z,929.92
2019-06-01T11:46:12.401Z,929.92
2019-06-01T11:47:12.351Z,929.93
2019-06-01T11:48:12.303Z,929.95
2019-06-01T11:49:12.267Z,929.97
2019-06-01T11:50:12.232Z,929.98
2019-06-01T11:51:12.162Z,929.99
2019-06-01T11:52:12.131Z,929.94
2019-06-01T11:53:12.081Z,929.92
2019-06-01T11:54:12.052Z,929.93
2019-06-01T11:55:11.996Z,929.97
2019-06-01T11:56:11.950Z,929.92
2019-06-01T11:57:11.926Z,929.95
2019-06-01T11:58:11.970Z,929.92
2019-06-01T11:59:11.829Z,929.93
2019-06-01T12:00:11.789Z,929.91
2019-06-01T12:01:11.726Z,929.91
2019-06-01T12:02:11.682Z,929.92
2019-06-01T12:03:11.656Z,929.92
2019-06-01T12:04:11.601Z,929.94
2019-06-01T12:05:11.545Z,929.97
2019-06-01T12:06:11.621Z,930.04
2019-06-01T12:07:17.491Z,929.98
2019-06-01T12:08:11.410Z,929.98
2019-06-01T12:09:11.380Z,929.97
2019-06-01T12:10:11.330Z,930.00
2019-06-01T12:11:11.279Z,930.01
2019-06-01T12:12:11.233Z,930.07
2019-06-01T12:13:11.182Z,930.07
2019-06-01T12:14:11.129Z,930.07
2019-06-01T12:15:11.098Z,930.08
2019-06-01T12:16:11.066Z,930.08
2019-06-01T12:17:11.008Z,930.07
2019-06-01T12:18:10.957Z,930.06
2019-06-01T12:19:10.925Z,930.09
2019-06-01T12:20:10.859Z,930.13
2019-06-01T12:21:10.835Z,930.17
2019-06-01T12:22:10.769Z,930.18
2019-06-01T12:23:10.738Z,930.21
2019-06-01T12:24:10.687Z,930.21
2019-06-01T12:25:10.657Z,930.24
2019-06-01T12:26:10.603Z,930.23
2019-06-01T12:27:10.558Z,930.20
2019-06-01T12:28:10.520Z,930.21